Terminal Aerodrome Forecast
Issued by NWS Des Moines, IA

Home | Current Version | Previous Version | Text Only | Print | Product List | Glossary On
Versions: 1 2 3 4 5 6 7 8 9 10 11 12 13 14 15 16 17 18 19 20 21 22 23 24 25 26 27 28 29 30 31 32 33 34 35 36 37 38 39 40 41 42 43 44 45
000
FTUS43 KDMX 260527
TAFALO
TAF
KALO 260527Z 2606/2706 16011KT P6SM BKN250
     FM260800 15005KT P6SM SCT050 BKN130
     FM261500 30006KT P6SM BKN035 BKN110
     FM261700 34007KT 5SM BR BKN016 OVC030
     FM270200 35006KT 5SM -RASN BKN005 OVC012=

USA.gov is the U.S. government's official web portal to all federal, state and local government web resources and services.